Time;durP1;ratioP1;P1;durP2;ratioP2;P2;SDS_P1;SDS_P2;PMS_P1;PMS_P2;Temp;Humidity;BMP_temperature;BMP_pressure;BME280_temperature;BME280_humidity;BME280_pressure;Samples;Min_cycle;Max_cycle;Signal;HPM_P1;HPM_P2
2021/04/24 00:00:40;;;;;;;6.93;2.60;;;15.60;31.00;;;;;;5015964;28;20061;-78
2021/04/24 00:03:08;;;;;;;8.27;2.70;;;15.60;31.00;;;;;;5016162;28;20066;-78
2021/04/24 00:05:40;;;;;;;8.45;2.95;;;15.60;31.10;;;;;;5017264;28;20022;-77
2021/04/24 00:08:09;;;;;;;8.88;2.70;;;15.60;31.10;;;;;;5016937;28;20022;-77
2021/04/24 00:10:38;;;;;;;7.80;2.80;;;15.50;31.10;;;;;;5000156;28;20052;-77
2021/04/24 00:13:06;;;;;;;12.23;3.30;;;15.50;31.20;;;;;;5031925;28;20402;-77
2021/04/24 00:15:34;;;;;;;9.43;3.05;;;15.50;31.40;;;;;;5016650;28;20022;-77
2021/04/24 00:18:00;;;;;;;9.20;3.05;;;15.40;31.30;;;;;;5012122;28;20030;-77
2021/04/24 00:20:26;;;;;;;10.05;3.00;;;15.40;31.50;;;;;;5014144;28;20037;-77
2021/04/24 00:22:53;;;;;;;5.72;2.70;;;15.30;31.50;;;;;;5012707;28;20034;-77
2021/04/24 00:25:20;;;;;;;8.60;3.10;;;15.30;31.60;;;;;;5013628;28;20060;-77
2021/04/24 00:27:46;;;;;;;7.35;2.85;;;15.20;31.70;;;;;;5012461;28;20026;-77
2021/04/24 00:30:14;;;;;;;8.98;3.15;;;15.20;31.80;;;;;;5012277;28;20026;-77
2021/04/24 00:32:41;;;;;;;9.15;3.03;;;15.10;31.90;;;;;;5012513;28;20080;-77
2021/04/24 00:35:08;;;;;;;9.52;3.17;;;15.10;32.20;;;;;;5011972;28;20040;-77
2021/04/24 00:37:35;;;;;;;12.00;3.40;;;15.10;32.10;;;;;;5012264;28;20045;-76
2021/04/24 00:40:01;;;;;;;7.75;3.03;;;15.10;32.20;;;;;;5006547;28;20493;-77
2021/04/24 00:42:27;;;;;;;9.60;3.60;;;15.10;32.30;;;;;;5013474;28;20064;-76
2021/04/24 00:44:54;;;;;;;7.05;3.30;;;15.10;32.30;;;;;;5013356;28;20018;-76
2021/04/24 00:47:22;;;;;;;10.98;3.22;;;15.10;32.40;;;;;;5012299;28;20044;-77
2021/04/24 00:49:50;;;;;;;8.20;3.50;;;15.10;32.30;;;;;;5004149;28;20030;-77
2021/04/24 00:52:17;;;;;;;8.70;3.30;;;15.10;32.40;;;;;;5009284;28;20033;-78
2021/04/24 00:54:43;;;;;;;10.40;3.30;;;15.00;32.50;;;;;;5013187;28;20034;-78
2021/04/24 00:57:10;;;;;;;8.15;3.00;;;15.00;32.70;;;;;;5012556;28;20053;-76
2021/04/24 00:59:37;;;;;;;7.95;3.53;;;15.00;32.70;;;;;;5013226;28;20029;-77
2021/04/24 01:02:04;;;;;;;9.10;3.53;;;15.00;32.70;;;;;;5012031;28;20125;-78
2021/04/24 01:04:32;;;;;;;6.50;3.10;;;15.00;32.70;;;;;;5011878;28;20037;-77
2021/04/24 01:06:58;;;;;;;11.13;3.70;;;15.10;32.70;;;;;;5013154;28;20022;-77
2021/04/24 01:09:25;;;;;;;8.55;3.50;;;15.00;32.60;;;;;;5012464;28;20037;-77
2021/04/24 01:11:51;;;;;;;8.48;3.40;;;15.00;32.70;;;;;;5011931;28;20022;-76
2021/04/24 01:14:18;;;;;;;8.98;3.72;;;15.00;32.80;;;;;;5012643;28;20029;-77
2021/04/24 01:16:44;;;;;;;7.65;3.33;;;15.00;32.80;;;;;;5012953;28;20389;-77
2021/04/24 01:19:13;;;;;;;7.65;3.22;;;15.00;32.70;;;;;;5012749;28;20030;-78
2021/04/24 01:21:41;;;;;;;9.30;3.47;;;14.90;32.80;;;;;;5012942;28;20022;-77
2021/04/24 01:24:11;;;;;;;9.38;3.60;;;15.00;32.90;;;;;;5011070;28;20386;-77
2021/04/24 01:26:37;;;;;;;9.13;4.03;;;15.00;32.80;;;;;;5011195;28;20371;-77
2021/04/24 01:29:06;;;;;;;8.50;3.33;;;14.90;32.80;;;;;;5010381;28;20533;-76
2021/04/24 01:31:37;;;;;;;10.00;3.53;;;14.90;33.10;;;;;;5012558;28;20022;-76
2021/04/24 01:34:04;;;;;;;;;;;14.90;33.10;;;;;;5013015;28;20029;-76
2021/04/24 01:36:30;;;;;;;10.95;3.60;;;14.90;33.20;;;;;;5012794;28;19992;-76
2021/04/24 01:38:57;;;;;;;11.00;3.60;;;14.80;33.20;;;;;;5009161;28;20505;-76
2021/04/24 01:41:23;;;;;;;10.70;3.60;;;14.80;33.20;;;;;;5011804;28;20045;-76
2021/04/24 01:43:51;;;;;;;9.32;3.78;;;14.70;33.40;;;;;;5011126;28;20022;-76
2021/04/24 01:46:17;;;;;;;9.05;3.78;;;14.70;33.40;;;;;;4994706;28;20042;-77
2021/04/24 01:48:44;;;;;;;8.50;3.58;;;14.70;33.50;;;;;;5010806;28;20026;-77
2021/04/24 01:51:11;;;;;;;8.93;3.90;;;14.70;33.50;;;;;;5012701;28;20064;-78
2021/04/24 01:53:38;;;;;;;8.23;3.80;;;14.70;33.30;;;;;;5011971;28;20410;-78
2021/04/24 01:56:05;;;;;;;7.95;3.60;;;14.70;33.30;;;;;;5010676;28;20478;-78
2021/04/24 01:58:32;;;;;;;8.77;3.97;;;14.80;33.30;;;;;;5011999;28;20038;-78
2021/04/24 02:01:02;;;;;;;8.75;3.55;;;14.70;33.30;;;;;;5011706;28;20033;-78
2021/04/24 02:03:29;;;;;;;9.80;3.75;;;14.70;33.30;;;;;;5010857;28;20033;-77
2021/04/24 02:05:56;;;;;;;8.55;3.50;;;14.70;33.30;;;;;;5010938;28;20030;-77
2021/04/24 02:08:36;;;;;;;11.07;4.00;;;14.80;33.30;;;;;;5010769;28;20022;-77
2021/04/24 02:11:03;;;;;;;9.35;3.58;;;14.80;34.30;;;;;;5010486;28;20026;-76
2021/04/24 02:13:33;;;;;;;8.93;4.35;;;14.70;33.30;;;;;;5012073;28;20097;-77
2021/04/24 02:16:01;;;;;;;9.52;3.70;;;14.60;33.40;;;;;;5011375;28;20029;-77
2021/04/24 02:18:28;;;;;;;9.55;4.25;;;14.70;33.50;;;;;;5010638;28;20022;-77
2021/04/24 02:20:55;;;;;;;10.00;3.83;;;14.60;33.40;;;;;;5010274;28;20038;-77
2021/04/24 02:23:21;;;;;;;9.70;4.45;;;14.60;33.50;;;;;;5010093;28;20394;-77
2021/04/24 02:25:48;;;;;;;7.70;3.53;;;14.60;33.50;;;;;;5026962;28;20045;-77
2021/04/24 02:28:15;;;;;;;9.70;3.83;;;14.50;33.60;;;;;;5011293;28;20026;-76
2021/04/24 02:30:43;;;;;;;8.70;4.00;;;14.60;33.60;;;;;;5011241;28;20092;-76
2021/04/24 02:33:10;;;;;;;10.63;4.20;;;14.60;33.60;;;;;;5009900;28;20032;-76
2021/04/24 02:35:46;;;;;;;10.40;4.28;;;14.50;33.60;;;;;;5010305;28;20033;-76
2021/04/24 02:38:17;;;;;;;8.27;3.88;;;14.60;33.50;;;;;;5007816;28;20034;-76
2021/04/24 02:40:43;;;;;;;8.02;3.90;;;14.60;33.50;;;;;;5002557;28;20072;-76
2021/04/24 02:43:10;;;;;;;11.60;3.90;;;14.70;33.30;;;;;;5010263;28;20030;-76
2021/04/24 02:45:37;;;;;;;9.55;4.10;;;14.70;33.20;;;;;;5010169;28;20073;-76
2021/04/24 02:48:03;;;;;;;10.05;3.80;;;14.70;33.10;;;;;;5010914;28;20022;-77
2021/04/24 02:50:29;;;;;;;9.48;4.03;;;14.60;33.00;;;;;;5011158;28;20037;-77
2021/04/24 02:52:56;;;;;;;10.40;4.10;;;14.60;33.10;;;;;;5011555;28;20486;-77
2021/04/24 02:55:23;;;;;;;8.30;3.83;;;14.70;33.00;;;;;;5009947;28;20049;-78
2021/04/24 02:57:49;;;;;;;7.95;4.07;;;14.60;32.90;;;;;;5011444;28;20046;-78
2021/04/24 03:00:18;;;;;;;10.25;4.00;;;14.60;32.90;;;;;;5010900;28;20033;-78
2021/04/24 03:02:44;;;;;;;10.07;3.60;;;14.60;32.90;;;;;;5011202;28;20517;-77
2021/04/24 03:05:15;;;;;;;9.10;3.40;;;14.70;32.80;;;;;;5011463;28;20049;-77
2021/04/24 03:07:44;;;;;;;8.55;3.88;;;14.70;32.70;;;;;;5011290;28;20018;-77
2021/04/24 03:10:12;;;;;;;8.82;3.45;;;14.80;32.60;;;;;;5010873;28;20141;-73
2021/04/24 03:12:39;;;;;;;8.27;3.53;;;14.80;32.60;;;;;;5011120;28;20512;-73
2021/04/24 03:15:06;;;;;;;10.18;3.97;;;14.80;32.50;;;;;;5011106;28;20037;-77
2021/04/24 03:17:33;;;;;;;9.35;3.97;;;14.90;32.50;;;;;;5010776;28;20053;-77
2021/04/24 03:19:59;;;;;;;7.95;3.80;;;14.80;32.20;;;;;;5009986;28;20042;-77
2021/04/24 03:22:25;;;;;;;8.40;3.53;;;14.80;32.40;;;;;;5010956;28;20382;-77
2021/04/24 03:24:51;;;;;;;8.27;3.70;;;14.80;32.30;;;;;;5010033;28;20363;-77
2021/04/24 03:27:17;;;;;;;9.07;3.90;;;14.80;32.50;;;;;;5009594;28;20022;-77
2021/04/24 03:29:44;;;;;;;7.43;3.38;;;14.80;32.50;;;;;;5010714;28;20072;-77
2021/04/24 03:32:10;;;;;;;7.53;3.20;;;14.80;32.50;;;;;;5010694;28;20022;-77
2021/04/24 03:34:36;;;;;;;9.65;3.75;;;14.90;32.50;;;;;;5000981;28;20062;-77
2021/04/24 03:37:02;;;;;;;8.48;3.50;;;14.90;32.30;;;;;;5011068;28;20026;-76
2021/04/24 03:39:28;;;;;;;8.75;3.58;;;14.90;32.50;;;;;;4997809;28;20062;-77
2021/04/24 03:41:54;;;;;;;9.15;3.15;;;14.80;32.30;;;;;;5011133;28;20030;-76
2021/04/24 03:44:20;;;;;;;7.47;3.10;;;14.90;32.50;;;;;;5010824;28;20106;-77
2021/04/24 03:46:47;;;;;;;9.40;4.10;;;14.90;32.50;;;;;;5009310;28;20025;-77
2021/04/24 03:49:13;;;;;;;9.18;3.42;;;14.90;32.30;;;;;;5010529;28;20025;-77
2021/04/24 03:51:40;;;;;;;7.25;3.63;;;14.90;32.50;;;;;;5010431;28;20069;-78
2021/04/24 03:54:07;;;;;;;7.60;3.97;;;14.90;32.50;;;;;;5013174;28;20025;-78
2021/04/24 03:56:34;;;;;;;8.48;3.65;;;14.90;32.40;;;;;;5014697;28;20041;-78
2021/04/24 03:59:00;;;;;;;8.15;3.63;;;14.90;32.50;;;;;;5014057;28;20041;-78
2021/04/24 04:01:27;;;;;;;10.00;3.85;;;14.90;32.30;;;;;;5013971;28;20053;-78
2021/04/24 04:03:53;;;;;;;8.90;3.33;;;14.80;32.30;;;;;;5014569;28;20030;-77
2021/04/24 04:06:19;;;;;;;10.05;3.75;;;14.80;32.30;;;;;;5014157;28;20379;-77
2021/04/24 04:08:45;;;;;;;7.95;3.60;;;14.80;32.40;;;;;;5013144;28;20048;-77
2021/04/24 04:11:11;;;;;;;10.07;3.63;;;14.80;32.40;;;;;;5014035;28;20014;-77
2021/04/24 04:13:38;;;;;;;7.65;2.90;;;14.80;32.40;;;;;;5013398;28;20065;-77
2021/04/24 04:16:04;;;;;;;7.30;3.58;;;14.80;32.50;;;;;;5012283;28;20482;-78
2021/04/24 04:18:35;;;;;;;8.68;3.50;;;14.80;32.50;;;;;;5013587;28;20033;-77
2021/04/24 04:21:02;;;;;;;8.65;3.67;;;14.70;32.50;;;;;;5014255;28;20072;-77
2021/04/24 04:23:28;;;;;;;6.60;3.20;;;14.70;32.40;;;;;;5014034;28;20040;-77
2021/04/24 04:25:56;;;;;;;10.48;3.90;;;14.70;32.50;;;;;;5013572;28;20457;-76
2021/04/24 04:28:22;;;;;;;11.00;4.13;;;14.70;32.50;;;;;;5012527;28;20030;-77
2021/04/24 04:30:51;;;;;;;8.48;3.88;;;14.60;32.30;;;;;;5014100;28;20552;-77
2021/04/24 04:33:18;;;;;;;10.38;3.90;;;14.60;32.40;;;;;;5011795;28;20502;-76
2021/04/24 04:35:45;;;;;;;8.23;3.50;;;14.60;32.50;;;;;;5013909;28;20048;-76
2021/04/24 04:38:11;;;;;;;8.80;3.95;;;14.50;32.40;;;;;;5012179;28;20034;-76
2021/04/24 04:40:38;;;;;;;8.05;3.63;;;14.50;32.40;;;;;;5012250;28;20482;-77
2021/04/24 04:43:05;;;;;;;11.60;4.18;;;14.50;32.50;;;;;;5013434;28;20033;-76
2021/04/24 04:45:32;;;;;;;10.38;3.90;;;14.50;32.60;;;;;;5013211;28;20497;-77
2021/04/24 04:47:59;;;;;;;8.52;3.78;;;14.40;32.60;;;;;;5013098;28;20452;-77
2021/04/24 04:50:31;;;;;;;9.15;3.53;;;14.40;32.60;;;;;;5013435;28;20026;-77
2021/04/24 04:52:58;;;;;;;11.15;4.15;;;14.40;33.60;;;;;;5012072;28;20026;-77
2021/04/24 04:55:25;;;;;;;8.32;3.83;;;14.40;32.70;;;;;;5013035;28;20036;-77
2021/04/24 04:57:53;;;;;;;8.00;3.60;;;14.40;32.70;;;;;;5013376;28;20050;-77
2021/04/24 05:00:21;;;;;;;8.82;3.85;;;14.40;32.80;;;;;;5012425;28;20065;-77
2021/04/24 05:02:48;;;;;;;10.40;4.05;;;14.40;32.70;;;;;;5011288;28;20436;-77
2021/04/24 05:05:15;;;;;;;7.28;3.80;;;14.40;32.80;;;;;;5013365;28;20034;-77
2021/04/24 05:07:45;;;;;;;9.18;4.00;;;14.30;32.80;;;;;;5012853;28;20061;-77
2021/04/24 05:10:12;;;;;;;9.77;3.83;;;14.20;32.90;;;;;;5012165;28;20121;-76
2021/04/24 05:12:38;;;;;;;7.85;3.63;;;14.20;32.90;;;;;;5012678;28;20033;-76
2021/04/24 05:15:05;;;;;;;8.43;3.65;;;14.20;33.00;;;;;;5013148;28;20030;-76
2021/04/24 05:17:31;;;;;;;8.30;3.80;;;14.20;33.10;;;;;;5011373;28;20149;-76
2021/04/24 05:19:57;;;;;;;11.93;4.63;;;14.20;33.10;;;;;;5012640;28;20014;-76
2021/04/24 05:22:23;;;;;;;7.65;3.60;;;14.20;33.10;;;;;;5012663;28;20018;-77
2021/04/24 05:24:50;;;;;;;9.02;4.05;;;14.20;33.20;;;;;;5011701;28;20034;-77
2021/04/24 05:27:16;;;;;;;7.90;3.65;;;14.20;33.10;;;;;;5011491;28;20030;-77
2021/04/24 05:29:42;;;;;;;9.23;4.07;;;14.10;33.10;;;;;;5012844;28;20101;-77
2021/04/24 05:32:08;;;;;;;9.52;3.95;;;14.10;33.20;;;;;;5012532;28;20021;-77
2021/04/24 05:34:35;;;;;;;11.13;3.70;;;14.10;33.20;;;;;;5012109;28;20069;-76
2021/04/24 05:37:01;;;;;;;7.03;3.10;;;14.10;33.30;;;;;;5012721;28;20022;-76
2021/04/24 05:39:27;;;;;;;7.88;3.70;;;14.20;33.30;;;;;;4999574;28;20037;-76
2021/04/24 05:41:53;;;;;;;9.05;3.88;;;14.20;33.20;;;;;;5011541;28;20026;-76
2021/04/24 05:44:19;;;;;;;8.52;3.58;;;14.20;33.20;;;;;;5012448;28;20030;-76
2021/04/24 05:46:46;;;;;;;8.10;3.67;;;14.20;33.30;;;;;;5011755;28;20049;-77
2021/04/24 05:49:12;;;;;;;11.10;4.22;;;14.20;33.20;;;;;;5010897;28;20507;-78
2021/04/24 05:51:38;;;;;;;9.70;4.60;;;14.20;33.20;;;;;;5011113;28;20040;-77
2021/04/24 05:54:05;;;;;;;9.13;3.95;;;14.20;33.10;;;;;;5012295;28;20409;-77
2021/04/24 05:56:31;;;;;;;9.43;4.07;;;14.10;33.10;;;;;;5012299;28;20050;-78
2021/04/24 05:58:57;;;;;;;9.32;4.85;;;14.10;33.20;;;;;;5011695;28;20042;-78
2021/04/24 06:01:23;;;;;;;11.90;4.63;;;14.10;34.40;;;;;;5010839;28;20034;-78
2021/04/24 06:03:53;;;;;;;7.97;3.90;;;14.10;34.60;;;;;;5010444;28;20032;-77
2021/04/24 06:06:20;;;;;;;8.25;4.18;;;14.10;33.60;;;;;;5010464;28;20030;-77
2021/04/24 06:08:46;;;;;;;7.93;3.70;;;14.20;33.70;;;;;;5011746;28;20025;-77
2021/04/24 06:11:12;;;;;;;9.13;3.88;;;14.30;33.70;;;;;;5013748;28;20025;-77
2021/04/24 06:13:38;;;;;;;11.32;4.10;;;14.30;33.40;;;;;;5009915;28;20106;-77
2021/04/24 06:16:05;;;;;;;9.30;4.28;;;14.20;33.20;;;;;;5010768;28;20513;-77
2021/04/24 06:18:31;;;;;;;8.50;3.95;;;14.10;33.30;;;;;;5010183;28;20041;-77
2021/04/24 06:20:57;;;;;;;9.05;3.47;;;14.10;33.50;;;;;;5010411;28;20053;-77
2021/04/24 06:23:23;;;;;;;10.68;4.15;;;14.10;33.60;;;;;;5011654;28;20030;-77
2021/04/24 06:25:49;;;;;;;8.95;3.78;;;14.00;33.50;;;;;;5011363;28;20493;-77
2021/04/24 06:28:16;;;;;;;8.93;4.07;;;14.00;33.50;;;;;;5014448;28;20030;-76
2021/04/24 06:30:42;;;;;;;9.43;4.10;;;14.00;33.70;;;;;;5021728;28;20568;-76
2021/04/24 06:33:09;;;;;;;9.57;3.80;;;13.90;33.80;;;;;;5027394;28;20135;-77
2021/04/24 06:35:35;;;;;;;7.47;3.33;;;14.00;34.00;;;;;;5018297;28;20029;-76
2021/04/24 06:38:01;;;;;;;9.02;4.18;;;14.20;34.00;;;;;;5021776;28;20022;-77
2021/04/24 06:40:28;;;;;;;10.93;4.50;;;14.20;33.70;;;;;;5016653;28;20112;-76
2021/04/24 06:42:54;;;;;;;10.82;4.60;;;14.30;33.40;;;;;;5025475;28;20049;-76
2021/04/24 06:45:21;;;;;;;11.18;4.38;;;14.20;33.40;;;;;;5016111;28;20028;-77
2021/04/24 06:47:48;;;;;;;10.40;4.60;;;14.20;33.50;;;;;;5027770;28;20021;-76
2021/04/24 06:50:17;;;;;;;9.65;4.75;;;14.20;33.60;;;;;;5020890;28;20505;-77
2021/04/24 06:52:43;;;;;;;8.68;4.43;;;14.30;33.60;;;;;;5017184;28;20037;-77
2021/04/24 06:55:11;;;;;;;8.20;4.07;;;14.40;33.50;;;;;;5013013;28;20042;-78
2021/04/24 06:57:38;;;;;;;12.20;4.38;;;14.50;33.60;;;;;;5011103;28;20120;-77
2021/04/24 07:00:09;;;;;;;10.18;4.50;;;14.70;33.50;;;;;;5024117;28;20034;-77
2021/04/24 07:02:35;;;;;;;11.88;4.38;;;15.00;33.30;;;;;;5009912;28;20018;-77
2021/04/24 07:05:02;;;;;;;10.43;4.60;;;15.20;32.60;;;;;;5010150;28;20057;-77
2021/04/24 07:07:29;;;;;;;8.98;4.30;;;15.40;32.30;;;;;;5010375;28;20053;-77
2021/04/24 07:09:55;;;;;;;9.73;4.60;;;15.80;31.90;;;;;;5009244;28;20049;-72
2021/04/24 07:12:21;;;;;;;9.80;4.47;;;15.90;31.00;;;;;;5021594;28;20030;-77
2021/04/24 07:14:47;;;;;;;10.32;4.70;;;16.10;30.70;;;;;;5010838;28;20061;-77
2021/04/24 07:17:13;;;;;;;10.15;4.00;;;16.30;30.70;;;;;;5009374;28;20050;-77
2021/04/24 07:19:41;;;;;;;9.52;4.32;;;16.50;30.50;;;;;;5014037;28;20404;-80
2021/04/24 07:22:07;;;;;;;10.90;4.25;;;16.70;30.10;;;;;;5011057;28;20112;-77
2021/04/24 07:24:33;;;;;;;9.55;4.30;;;17.10;29.90;;;;;;5017897;28;20036;-77
2021/04/24 07:27:00;;;;;;;8.98;4.32;;;17.40;29.00;;;;;;5031959;28;20028;-77
2021/04/24 07:29:26;;;;;;;10.68;4.10;;;17.60;29.00;;;;;;5023425;28;20117;-78
2021/04/24 07:31:52;;;;;;;8.55;4.13;;;18.00;28.80;;;;;;5021984;28;20041;-77
2021/04/24 07:34:18;;;;;;;9.38;4.05;;;18.30;28.40;;;;;;5011727;28;20036;-77
2021/04/24 07:36:45;;;;;;;8.43;4.05;;;18.70;27.80;;;;;;5028558;28;20022;-78
2021/04/24 07:39:11;;;;;;;9.30;4.25;;;19.20;27.80;;;;;;5020283;28;20036;-78
2021/04/24 07:41:37;;;;;;;11.27;4.30;;;19.30;26.80;;;;;;5027084;28;20040;-77
2021/04/24 07:44:04;;;;;;;9.45;4.05;;;19.40;26.90;;;;;;5012066;28;20030;-78
2021/04/24 07:46:30;;;;;;;9.45;4.00;;;19.80;26.70;;;;;;5012881;28;20053;-77
2021/04/24 07:48:56;;;;;;;8.57;3.80;;;20.10;26.60;;;;;;5025700;28;20025;-78
2021/04/24 07:51:22;;;;;;;9.68;4.30;;;20.40;25.90;;;;;;5020759;28;20021;-77
2021/04/24 07:53:48;;;;;;;8.23;4.10;;;20.60;25.50;;;;;;5024405;28;20556;-79
2021/04/24 07:56:15;;;;;;;8.52;3.53;;;20.70;25.20;;;;;;5029126;28;20033;-77
2021/04/24 07:58:42;;;;;;;9.07;4.25;;;20.90;25.50;;;;;;5019050;28;20048;-79
2021/04/24 08:01:09;;;;;;;8.70;3.90;;;21.10;25.30;;;;;;5025201;28;20022;-78
2021/04/24 08:03:35;;;;;;;10.20;4.30;;;21.30;25.30;;;;;;5020911;28;20034;-80
2021/04/24 08:06:01;;;;;;;9.85;4.00;;;21.40;24.80;;;;;;5013049;28;20033;-78
2021/04/24 08:08:27;;;;;;;8.50;4.25;;;21.30;24.40;;;;;;5024158;28;20041;-78
2021/04/24 08:10:53;;;;;;;9.70;3.90;;;21.00;24.60;;;;;;5026956;28;20450;-78
2021/04/24 08:13:19;;;;;;;8.98;3.88;;;20.70;25.00;;;;;;5027245;28;20029;-78
2021/04/24 08:15:45;;;;;;;8.73;3.90;;;20.70;25.30;;;;;;5019734;28;20026;-78
2021/04/24 08:18:12;;;;;;;9.00;4.30;;;20.60;25.30;;;;;;5031572;28;20026;-77
2021/04/24 08:20:38;;;;;;;8.95;4.35;;;20.60;25.60;;;;;;5026044;28;20044;-71
2021/04/24 08:23:04;;;;;;;9.20;3.97;;;20.60;25.40;;;;;;5013895;28;20022;-70
2021/04/24 08:25:31;;;;;;;8.38;3.80;;;20.30;25.70;;;;;;5013655;28;20022;-70
2021/04/24 08:27:57;;;;;;;9.68;4.18;;;19.90;26.30;;;;;;5013939;28;20030;-70
2021/04/24 08:30:23;;;;;;;9.60;4.07;;;19.60;26.70;;;;;;5012760;28;20034;-69
2021/04/24 08:32:50;;;;;;;8.70;3.80;;;19.40;27.10;;;;;;5013601;28;20045;-69
2021/04/24 08:35:17;;;;;;;9.27;3.85;;;19.30;27.40;;;;;;5012802;28;20501;-70
2021/04/24 08:37:45;;;;;;;8.35;3.70;;;19.40;27.70;;;;;;5011986;28;20489;-70
2021/04/24 08:40:13;;;;;;;8.55;3.70;;;19.80;27.70;;;;;;5017953;28;20034;-70
2021/04/24 08:42:41;;;;;;;9.95;3.92;;;20.20;27.40;;;;;;5021852;28;20039;-69
2021/04/24 08:45:15;;;;;;;9.20;3.97;;;20.60;26.90;;;;;;5003549;28;20026;-70
2021/04/24 08:47:49;;;;;;;8.00;3.67;;;20.90;25.70;;;;;;5013251;28;20037;-69
2021/04/24 08:50:21;;;;;;;11.48;4.20;;;20.90;26.30;;;;;;5013226;28;20026;-70
2021/04/24 08:52:47;;;;;;;9.77;4.05;;;20.90;26.70;;;;;;5013375;28;20033;-69
2021/04/24 08:55:17;;;;;;;11.23;4.60;;;20.70;26.20;;;;;;5013156;28;20026;-69
2021/04/24 08:57:44;;;;;;;10.65;4.00;;;20.30;25.60;;;;;;5018766;28;20050;-68
2021/04/24 09:00:11;;;;;;;8.88;4.00;;;19.70;26.70;;;;;;5013240;28;20121;-69
2021/04/24 09:02:43;;;;;;;9.98;3.80;;;19.30;27.20;;;;;;5013437;28;20033;-68
2021/04/24 09:05:12;;;;;;;9.68;4.07;;;19.20;27.90;;;;;;5011572;28;20117;-72
2021/04/24 09:07:38;;;;;;;9.98;3.88;;;19.20;27.70;;;;;;5012541;28;20039;-71
2021/04/24 09:10:05;;;;;;;8.68;3.80;;;19.40;28.00;;;;;;5013007;28;20061;-73
2021/04/24 09:12:39;;;;;;;8.13;3.47;;;19.60;28.60;;;;;;5012859;28;20097;-72
2021/04/24 09:15:07;;;;;;;10.77;4.07;;;19.90;27.90;;;;;;5012803;28;20018;-76
2021/04/24 09:17:57;;;;;;;9.02;3.53;;;20.10;27.70;;;;;;5011753;28;20766;-77
2021/04/24 09:20:29;;;;;;;8.98;3.28;;;20.30;27.40;;;;;;5011824;28;20037;-77
2021/04/24 09:23:04;;;;;;;8.23;3.90;;;20.50;27.50;;;;;;5012169;28;20113;-76
2021/04/24 09:25:40;;;;;;;10.65;4.10;;;20.70;26.90;;;;;;5012517;28;20113;-71
2021/04/24 09:28:10;;;;;;;7.80;3.30;;;20.70;26.60;;;;;;5012340;28;20034;-76
2021/04/24 09:30:39;;;;;;;8.25;3.83;;;21.00;27.00;;;;;;5012539;28;20032;-76
2021/04/24 09:33:11;;;;;;;9.57;3.78;;;21.40;26.70;;;;;;5012487;28;20034;-75
2021/04/24 09:35:42;;;;;;;8.45;3.53;;;21.80;26.30;;;;;;5012316;28;20390;-75
2021/04/24 09:38:10;;;;;;;11.10;3.97;;;22.00;25.80;;;;;;5009656;28;20036;-76
2021/04/24 09:40:37;;;;;;;9.60;4.25;;;22.30;25.20;;;;;;5011910;28;20520;-76
2021/04/24 09:43:08;;;;;;;8.50;4.38;;;22.40;25.10;;;;;;5012292;28;20033;-75
2021/04/24 09:45:40;;;;;;;10.57;4.15;;;22.60;25.00;;;;;;5012280;28;20028;-76
2021/04/24 09:48:24;;;;;;;10.27;4.22;;;22.50;25.20;;;;;;5012276;28;20030;-65
2021/04/24 09:50:51;;;;;;;9.18;4.15;;;22.30;25.30;;;;;;5011488;28;20021;-65
2021/04/24 09:53:25;;;;;;;9.90;4.53;;;22.30;25.40;;;;;;5011730;28;20097;-66
2021/04/24 09:55:53;;;;;;;8.43;3.78;;;22.30;25.30;;;;;;5012000;28;20425;-65
2021/04/24 09:58:32;;;;;;;9.82;4.47;;;21.90;25.50;;;;;;5011529;28;20053;-69
2021/04/24 10:01:20;;;;;;;9.05;4.28;;;21.30;26.20;;;;;;5011375;28;20179;-64
2021/04/24 10:03:50;;;;;;;10.02;4.53;;;20.90;26.70;;;;;;5011170;28;20030;-66
2021/04/24 10:06:29;;;;;;;10.18;4.30;;;20.70;27.20;;;;;;5004783;28;20041;-64
2021/04/24 10:09:31;;;;;;;8.93;3.77;;;20.60;27.40;;;;;;5011516;28;20145;-65
2021/04/24 10:12:00;;;;;;;11.70;4.22;;;20.70;27.60;;;;;;5011673;28;20424;-66
2021/04/24 10:14:36;;;;;;;10.95;4.43;;;20.80;27.60;;;;;;5010062;28;20386;-64
2021/04/24 10:17:05;;;;;;;10.20;4.00;;;20.60;27.20;;;;;;5010529;28;20026;-66
2021/04/24 10:19:32;;;;;;;11.48;4.45;;;20.60;27.60;;;;;;5009994;28;20481;-67
2021/04/24 10:21:59;;;;;;;10.13;4.25;;;20.60;27.50;;;;;;5009950;28;20026;-73
2021/04/24 10:24:27;;;;;;;11.43;4.50;;;20.50;28.30;;;;;;5008539;28;20030;-73
2021/04/24 10:26:54;;;;;;;9.23;4.20;;;20.40;27.90;;;;;;5006703;28;20109;-70
2021/04/24 10:29:22;;;;;;;9.55;4.07;;;20.30;27.80;;;;;;5010383;28;20063;-68
2021/04/24 10:31:49;;;;;;;10.23;4.25;;;20.30;28.10;;;;;;5009258;28;20009;-69
2021/04/24 10:34:16;;;;;;;9.25;4.10;;;20.30;28.00;;;;;;5010750;28;20460;-72
2021/04/24 10:36:43;;;;;;;10.48;4.53;;;20.30;28.10;;;;;;5008590;28;20028;-74
2021/04/24 10:39:25;;;;;;;9.55;4.13;;;20.30;27.50;;;;;;5028382;28;20026;-73
2021/04/24 10:41:54;;;;;;;9.05;3.85;;;20.30;27.60;;;;;;5027905;28;20568;-72
2021/04/24 10:44:21;;;;;;;9.18;3.90;;;20.30;28.10;;;;;;5009535;28;20045;-72
2021/04/24 10:46:55;;;;;;;10.07;4.53;;;20.50;28.30;;;;;;5008549;28;20512;-73
2021/04/24 10:49:26;;;;;;;8.90;4.30;;;20.60;28.00;;;;;;5009223;28;20037;-69
2021/04/24 10:51:53;;;;;;;9.48;4.47;;;20.70;27.90;;;;;;5009964;28;20017;-72
2021/04/24 10:54:20;;;;;;;12.55;5.00;;;20.80;27.80;;;;;;5010711;28;20049;-74
2021/04/24 10:56:47;;;;;;;11.65;4.55;;;20.80;27.30;;;;;;5010988;28;20030;-76
2021/04/24 10:59:27;;;;;;;10.82;4.60;;;20.80;27.50;;;;;;5010597;28;20046;-75
2021/04/24 11:04:50;;;;;;;11.45;4.43;;;20.80;26.40;;;;;;5094902;27;20508;-75
2021/04/24 11:07:24;;;;;;;13.13;4.43;;;20.70;27.30;;;;;;5088460;28;20021;-74
2021/04/24 11:10:12;;;;;;;9.80;4.40;;;20.80;27.40;;;;;;5095577;28;20024;-76
2021/04/24 11:12:47;;;;;;;11.20;4.68;;;20.80;27.30;;;;;;5087772;28;20459;-74
2021/04/24 11:15:20;;;;;;;9.48;4.60;;;20.80;27.20;;;;;;5088424;28;20022;-73
2021/04/24 11:17:48;;;;;;;10.25;4.55;;;20.80;27.40;;;;;;5087443;28;20515;-68
2021/04/24 11:20:50;;;;;;;10.85;4.18;;;20.80;27.60;;;;;;5087069;28;20032;-70
2021/04/24 11:23:37;;;;;;;12.50;4.28;;;20.80;27.40;;;;;;5087896;28;20027;-69
2021/04/24 11:26:09;;;;;;;10.68;3.83;;;20.90;27.70;;;;;;5086366;28;20036;-69
2021/04/24 11:29:12;;;;;;;7.72;3.72;;;21.00;27.70;;;;;;5092590;28;20384;-69
2021/04/24 11:32:02;;;;;;;9.65;3.90;;;21.10;27.60;;;;;;5049074;28;20032;-68
2021/04/24 11:34:38;;;;;;;9.07;3.80;;;21.20;27.40;;;;;;5054306;28;20033;-69
2021/04/24 11:37:23;;;;;;;11.60;4.93;;;21.20;28.10;;;;;;5049261;28;20521;-68
2021/04/24 11:40:14;;;;;;;9.10;4.25;;;21.30;27.50;;;;;;5057680;28;20390;-68
2021/04/24 11:42:58;;;;;;;9.45;4.20;;;21.40;27.70;;;;;;5053252;28;20040;-67
2021/04/24 11:45:50;;;;;;;10.10;4.38;;;21.40;27.40;;;;;;5061606;28;20850;-68
2021/04/24 11:48:38;;;;;;;8.93;4.10;;;21.20;27.00;;;;;;5053567;28;20129;-68
2021/04/24 11:51:04;;;;;;;9.43;4.13;;;21.10;27.40;;;;;;5057489;28;20026;-70
2021/04/24 11:53:45;;;;;;;10.82;3.70;;;21.10;27.40;;;;;;5076830;28;20043;-69
2021/04/24 11:56:15;;;;;;;7.78;3.70;;;21.20;27.00;;;;;;5086142;28;20036;-69
2021/04/24 11:58:45;;;;;;;10.63;3.85;;;21.20;27.60;;;;;;5080043;28;20043;-71
2021/04/24 12:01:37;;;;;;;12.15;4.38;;;21.30;27.80;;;;;;5085064;28;20458;-67
2021/04/24 12:04:04;;;;;;;8.93;3.97;;;21.40;27.20;;;;;;5074894;28;20519;-69
2021/04/24 12:06:37;;;;;;;8.68;3.55;;;21.40;27.30;;;;;;5079312;28;20036;-68
2021/04/24 12:09:11;;;;;;;8.15;3.58;;;21.40;26.90;;;;;;5093460;28;20024;-68
2021/04/24 12:11:38;;;;;;;10.05;3.90;;;21.40;26.90;;;;;;5087775;28;20031;-67
2021/04/24 12:14:04;;;;;;;10.88;3.63;;;21.50;27.20;;;;;;5086476;28;20024;-67
2021/04/24 12:16:42;;;;;;;10.13;3.80;;;21.50;27.60;;;;;;5073984;28;20024;-67
2021/04/24 12:19:32;;;;;;;8.45;3.45;;;21.50;27.20;;;;;;5081111;28;20031;-67
2021/04/24 12:22:14;;;;;;;9.05;3.22;;;21.50;26.80;;;;;;5073659;28;20055;-68
2021/04/24 12:25:01;;;;;;;8.70;3.22;;;21.50;26.70;;;;;;5071725;28;20481;-67
2021/04/24 12:27:47;;;;;;;6.93;2.72;;;21.40;26.30;;;;;;5067381;28;20024;-68
2021/04/24 12:30:24;;;;;;;11.95;3.10;;;21.30;26.60;;;;;;5069969;28;20039;-68
2021/04/24 12:32:54;;;;;;;8.57;3.70;;;21.30;25.90;;;;;;5069255;28;20028;-69
2021/04/24 12:35:24;;;;;;;;;;;21.20;25.90;;;;;;5073587;28;20040;-67
2021/04/24 12:38:05;;;;;;;6.68;3.15;;;21.20;25.60;;;;;;5069671;28;19908;-67
2021/04/24 12:40:34;;;;;;;8.73;3.10;;;21.30;25.60;;;;;;5056459;28;20021;-68
2021/04/24 12:43:02;;;;;;;5.32;2.50;;;21.20;25.90;;;;;;5069061;28;20774;-68
2021/04/24 12:45:29;;;;;;;8.75;2.90;;;21.20;26.30;;;;;;5073106;28;20029;-68
2021/04/24 12:47:55;;;;;;;7.70;3.20;;;21.30;26.40;;;;;;5073692;28;20052;-68
2021/04/24 12:50:32;;;;;;;8.00;3.30;;;21.30;26.70;;;;;;5076741;28;20028;-67
2021/04/24 12:53:01;;;;;;;10.68;2.97;;;21.40;26.90;;;;;;5072758;28;20496;-68
2021/04/24 12:55:33;;;;;;;7.70;3.10;;;21.50;26.40;;;;;;5072938;28;20024;-68
2021/04/24 12:58:02;;;;;;;6.63;3.00;;;21.50;26.50;;;;;;5072180;28;20385;-68